Time;durP1;ratioP1;P1;durP2;ratioP2;P2;SDS_P1;SDS_P2;PMS_P1;PMS_P2;Temp;Humidity;BMP_temperature;BMP_pressure;BME280_temperature;BME280_humidity;BME280_pressure;Samples;Min_cycle;Max_cycle;Signal;HPM_P1;HPM_P2
2021/06/26 00:01:29;;;;;;;1.50;1.38;;;26.90;66.40;;;;;;4955284;29;20380;-83
2021/06/26 00:03:55;;;;;;;1.27;1.17;;;26.90;62.90;;;;;;4954949;28;20057;-80
2021/06/26 00:06:22;;;;;;;1.30;0.88;;;27.00;65.70;;;;;;4955024;29;20110;-77
2021/06/26 00:08:48;;;;;;;1.90;1.75;;;27.00;69.80;;;;;;4955259;28;20106;-84
2021/06/26 00:11:14;;;;;;;7.88;1.58;;;26.90;75.10;;;;;;4954831;28;20452;-80
2021/06/26 00:13:39;;;;;;;1.52;1.45;;;26.90;77.30;;;;;;4955014;28;20035;-76
2021/06/26 00:16:05;;;;;;;4.22;3.42;;;26.70;72.60;;;;;;4954988;28;20372;-79
2021/06/26 00:18:31;;;;;;;0.57;0.57;;;26.80;74.10;;;;;;4954794;28;20372;-77
2021/06/26 00:20:57;;;;;;;6.72;0.98;;;26.80;74.70;;;;;;4954509;28;20055;-79
2021/06/26 00:23:22;;;;;;;0.70;0.70;;;26.60;76.00;;;;;;4953548;29;20559;-79
2021/06/26 00:25:48;;;;;;;1.55;1.33;;;26.60;77.60;;;;;;4954834;28;20067;-78
2021/06/26 00:28:14;;;;;;;1.75;1.65;;;26.60;79.60;;;;;;4953304;29;20027;-80
2021/06/26 00:30:40;;;;;;;1.17;1.08;;;26.60;79.00;;;;;;4954347;28;20032;-79
2021/06/26 00:33:05;;;;;;;1.35;1.00;;;26.60;77.30;;;;;;4954649;28;20035;-78
2021/06/26 00:35:31;;;;;;;28.70;3.65;;;26.50;77.80;;;;;;4954358;28;20547;-75
2021/06/26 00:37:57;;;;;;;0.65;0.65;;;26.50;74.50;;;;;;4954893;28;20027;-77
2021/06/26 00:40:23;;;;;;;3.72;1.67;;;26.50;77.80;;;;;;4954057;28;20476;-81
2021/06/26 00:42:49;;;;;;;0.77;0.77;;;26.50;79.00;;;;;;4953273;29;20023;-78
2021/06/26 00:45:16;;;;;;;0.60;0.60;;;26.40;80.60;;;;;;4937564;29;20111;-81
2021/06/26 00:47:42;;;;;;;1.95;1.85;;;26.40;75.10;;;;;;4953579;29;20028;-78
2021/06/26 00:50:16;;;;;;;0.90;0.90;;;26.40;80.50;;;;;;4952710;29;20391;-78
2021/06/26 00:52:42;;;;;;;13.65;3.17;;;26.40;81.30;;;;;;4953118;29;20571;-79
2021/06/26 00:55:09;;;;;;;1.80;1.65;;;26.40;78.00;;;;;;4952630;28;20075;-81
2021/06/26 00:57:36;;;;;;;1.52;1.40;;;26.20;79.00;;;;;;4953975;28;20110;-82
2021/06/26 01:00:04;;;;;;;2.85;2.45;;;26.10;82.10;;;;;;4953749;28;20027;-78
2021/06/26 01:02:30;;;;;;;1.27;1.17;;;26.10;79.70;;;;;;4934849;29;20054;-78
2021/06/26 01:04:56;;;;;;;1.20;1.10;;;26.10;81.80;;;;;;4934665;29;20392;-79
2021/06/26 01:07:22;;;;;;;1.55;1.45;;;25.90;83.20;;;;;;4934974;29;20023;-77
2021/06/26 01:09:48;;;;;;;1.15;1.05;;;25.80;82.20;;;;;;4934903;29;20024;-79
2021/06/26 01:12:13;;;;;;;0.80;0.80;;;25.80;81.50;;;;;;4934924;29;20130;-78
2021/06/26 01:14:40;;;;;;;9.30;2.10;;;25.70;81.40;;;;;;4934342;29;20034;-79
2021/06/26 01:17:09;;;;;;;1.17;1.08;;;25.80;81.20;;;;;;4934807;29;20028;-78
2021/06/26 01:19:36;;;;;;;2.22;2.03;;;25.90;83.20;;;;;;4934675;29;20075;-79
2021/06/26 01:22:06;;;;;;;1.13;1.02;;;26.00;81.60;;;;;;4934634;29;20024;-76
2021/06/26 01:24:33;;;;;;;;;;;25.80;77.40;;;;;;4934726;29;20032;-78
2021/06/26 01:26:58;;;;;;;2.08;1.98;;;25.80;77.00;;;;;;4965709;28;20013;-78
2021/06/26 01:29:26;;;;;;;3.15;2.05;;;25.50;74.90;;;;;;4933017;29;20327;-77
2021/06/26 01:31:53;;;;;;;1.25;1.15;;;25.50;74.80;;;;;;4934600;29;20114;-83
2021/06/26 01:34:19;;;;;;;1.95;1.83;;;25.50;78.00;;;;;;4934294;29;20024;-80
2021/06/26 01:36:45;;;;;;;1.90;1.65;;;25.50;76.80;;;;;;4934235;29;20510;-78
2021/06/26 01:39:11;;;;;;;1.45;1.35;;;25.50;80.60;;;;;;4934161;29;20031;-77
2021/06/26 01:41:37;;;;;;;0.70;0.70;;;25.50;78.00;;;;;;4934640;29;20056;-83
2021/06/26 01:44:03;;;;;;;16.23;2.65;;;25.50;76.60;;;;;;4933980;29;20032;-81
2021/06/26 01:46:29;;;;;;;0.85;0.85;;;25.40;78.20;;;;;;4934711;29;20436;-85
2021/06/26 01:49:13;;;;;;;0.82;0.82;;;25.50;78.80;;;;;;4934583;29;20662;-85
2021/06/26 01:51:40;;;;;;;1.95;1.85;;;25.40;77.70;;;;;;4934269;29;20035;-86
2021/06/26 01:54:07;;;;;;;3.35;2.05;;;25.40;77.00;;;;;;4934711;29;20476;-76
2021/06/26 01:56:33;;;;;;;1.55;1.35;;;25.50;77.30;;;;;;4934180;29;20099;-78
2021/06/26 01:58:59;;;;;;;0.70;0.70;;;25.50;76.70;;;;;;4932924;29;20118;-75
2021/06/26 02:01:25;;;;;;;4.78;2.55;;;25.40;76.90;;;;;;4943443;29;20111;-77
2021/06/26 02:03:51;;;;;;;0.60;0.60;;;25.50;76.10;;;;;;4953579;28;20105;-78
2021/06/26 02:06:17;;;;;;;1.60;1.50;;;25.60;78.20;;;;;;4953027;28;20106;-79
2021/06/26 02:08:42;;;;;;;2.55;2.35;;;25.40;75.20;;;;;;4951853;29;20163;-77
2021/06/26 02:11:08;;;;;;;1.38;1.27;;;25.20;80.00;;;;;;4953243;28;20039;-79
2021/06/26 02:13:34;;;;;;;1.55;1.02;;;25.20;80.70;;;;;;4955613;28;20042;-78
2021/06/26 02:16:00;;;;;;;0.70;0.70;;;25.30;81.40;;;;;;4957270;28;20361;-80
2021/06/26 02:18:25;;;;;;;0.98;0.90;;;25.40;78.70;;;;;;4956879;28;20028;-76
2021/06/26 02:20:51;;;;;;;1.35;1.25;;;25.20;80.80;;;;;;4956961;28;20038;-80
2021/06/26 02:23:17;;;;;;;1.73;1.63;;;25.00;78.90;;;;;;4957235;28;20098;-80
2021/06/26 02:25:43;;;;;;;2.83;2.35;;;24.80;81.10;;;;;;4954697;29;20035;-85
2021/06/26 02:28:08;;;;;;;4.00;3.70;;;24.90;80.90;;;;;;4955499;29;20371;-82
2021/06/26 02:30:34;;;;;;;1.50;1.40;;;24.80;83.10;;;;;;4956607;29;20038;-83
2021/06/26 02:33:00;;;;;;;0.80;0.80;;;24.80;82.00;;;;;;4957274;28;20505;-80
2021/06/26 02:35:26;;;;;;;31.35;3.45;;;24.60;84.40;;;;;;4956361;28;20031;-82
2021/06/26 02:37:51;;;;;;;6.10;0.82;;;24.70;80.80;;;;;;4956808;28;20031;-82
2021/06/26 02:40:17;;;;;;;2.50;2.08;;;24.90;80.40;;;;;;4955300;29;20031;-80
2021/06/26 02:42:43;;;;;;;1.85;1.63;;;24.80;80.40;;;;;;4955599;29;20055;-82
2021/06/26 02:45:10;;;;;;;0.90;0.90;;;24.80;82.20;;;;;;4955029;29;20393;-82
2021/06/26 02:47:36;;;;;;;1.10;1.05;;;24.80;84.20;;;;;;4956879;28;20379;-81
2021/06/26 02:50:03;;;;;;;1.13;1.02;;;24.90;85.10;;;;;;4956380;28;20090;-84
2021/06/26 02:52:29;;;;;;;1.17;1.08;;;24.90;84.10;;;;;;4956367;28;20045;-85
2021/06/26 02:54:55;;;;;;;8.48;2.47;;;25.00;85.10;;;;;;4956749;29;20024;-84
2021/06/26 02:57:21;;;;;;;0.95;0.93;;;24.80;85.10;;;;;;4956222;29;20444;-83
2021/06/26 02:59:48;;;;;;;1.38;1.27;;;24.70;87.30;;;;;;4952891;29;20023;-83
2021/06/26 03:02:14;;;;;;;0.80;0.80;;;24.70;87.60;;;;;;4942679;29;20023;-83
2021/06/26 03:04:40;;;;;;;0.70;0.70;;;24.50;87.30;;;;;;4954445;29;20089;-85
2021/06/26 03:07:06;;;;;;;1.02;1.02;;;24.00;88.90;;;;;;4956226;29;20412;-83
2021/06/26 03:09:32;;;;;;;4.85;1.83;;;24.30;90.50;;;;;;4956394;29;20035;-78
2021/06/26 03:11:57;;;;;;;1.65;1.33;;;24.40;90.40;;;;;;4956462;29;20074;-77
2021/06/26 03:14:23;;;;;;;0.90;0.90;;;24.40;89.60;;;;;;4955862;29;20023;-76
2021/06/26 03:16:49;;;;;;;1.55;1.45;;;24.40;90.20;;;;;;4955895;28;20031;-77
2021/06/26 03:19:15;;;;;;;1.00;1.00;;;24.60;90.70;;;;;;4956076;28;20471;-77
2021/06/26 03:21:41;;;;;;;0.80;0.80;;;24.30;90.20;;;;;;4956204;28;20078;-77
2021/06/26 03:24:08;;;;;;;1.27;1.17;;;24.30;90.90;;;;;;4955751;28;20352;-75
2021/06/26 03:26:34;;;;;;;0.90;0.90;;;24.40;91.00;;;;;;4956056;28;20064;-76
2021/06/26 03:29:01;;;;;;;1.00;1.00;;;24.20;90.20;;;;;;4956048;28;20097;-79
2021/06/26 03:31:27;;;;;;;2.10;1.98;;;24.10;90.10;;;;;;4955486;28;20039;-77
2021/06/26 03:33:53;;;;;;;0.70;0.70;;;24.00;90.40;;;;;;4955792;29;20035;-82
2021/06/26 03:36:19;;;;;;;1.42;1.33;;;24.20;88.70;;;;;;4955650;28;20483;-83
2021/06/26 03:38:45;;;;;;;0.70;0.70;;;24.30;89.40;;;;;;4956269;29;20104;-84
2021/06/26 03:41:11;;;;;;;1.65;1.33;;;24.60;90.30;;;;;;4956135;29;20459;-85
2021/06/26 03:43:38;;;;;;;1.85;1.75;;;24.60;90.20;;;;;;4955712;28;20037;-83
2021/06/26 03:46:04;;;;;;;1.42;1.33;;;24.60;90.30;;;;;;4955511;28;20047;-81
2021/06/26 03:48:30;;;;;;;1.48;1.27;;;24.50;88.20;;;;;;4954455;29;20061;-84
2021/06/26 03:50:59;;;;;;;2.80;2.45;;;24.40;87.60;;;;;;4954265;29;20044;-84
2021/06/26 03:53:28;;;;;;;1.80;1.33;;;23.80;88.80;;;;;;4955268;28;20035;-83
2021/06/26 03:55:55;;;;;;;2.40;1.85;;;24.30;90.10;;;;;;4955759;29;20437;-81
2021/06/26 03:58:23;;;;;;;1.42;1.33;;;24.20;89.50;;;;;;4955345;28;20031;-83
2021/06/26 04:00:49;;;;;;;1.20;1.10;;;24.40;90.30;;;;;;4955058;28;20091;-76
2021/06/26 04:03:16;;;;;;;0.60;0.60;;;24.50;89.30;;;;;;4953840;29;20061;-80
2021/06/26 04:05:43;;;;;;;2.58;1.73;;;24.60;91.10;;;;;;4955478;28;20019;-82
2021/06/26 04:08:09;;;;;;;0.80;0.80;;;24.80;90.70;;;;;;4954880;28;20023;-83
2021/06/26 04:10:35;;;;;;;3.22;2.33;;;24.80;90.70;;;;;;4954076;29;20062;-81
2021/06/26 04:13:01;;;;;;;1.38;1.27;;;24.90;89.40;;;;;;4955567;28;20074;-89
2021/06/26 04:15:27;;;;;;;1.73;1.63;;;24.70;89.70;;;;;;4955093;28;20028;-78
2021/06/26 04:17:53;;;;;;;1.75;1.60;;;24.60;90.30;;;;;;4954925;28;20415;-82
2021/06/26 04:20:18;;;;;;;17.92;2.20;;;24.60;90.80;;;;;;4954907;29;20487;-79
2021/06/26 04:22:45;;;;;;;1.50;1.40;;;24.60;90.60;;;;;;4955083;28;20020;-78
2021/06/26 04:25:13;;;;;;;6.32;1.55;;;24.60;91.00;;;;;;4953327;29;20110;-79
2021/06/26 04:27:39;;;;;;;1.73;1.63;;;24.50;90.50;;;;;;4953420;29;20427;-80
2021/06/26 04:30:05;;;;;;;3.28;1.77;;;24.60;90.60;;;;;;4954592;28;20487;-75
2021/06/26 04:32:31;;;;;;;0.70;0.70;;;24.80;90.30;;;;;;4953925;28;20043;-80
2021/06/26 04:34:57;;;;;;;2.17;1.98;;;24.60;89.30;;;;;;4953118;28;20047;-76
2021/06/26 04:37:23;;;;;;;1.13;1.10;;;24.70;90.10;;;;;;4954338;28;20035;-77
2021/06/26 04:39:49;;;;;;;1.20;1.15;;;24.70;90.90;;;;;;4954388;28;20015;-80
2021/06/26 04:42:15;;;;;;;1.25;1.17;;;25.00;90.90;;;;;;4954525;28;20101;-77
2021/06/26 04:44:40;;;;;;;3.70;2.60;;;25.10;90.00;;;;;;4954287;28;20083;-80
2021/06/26 04:47:07;;;;;;;0.90;0.90;;;25.20;90.30;;;;;;4954073;28;20034;-78
2021/06/26 04:49:33;;;;;;;0.70;0.70;;;25.20;90.00;;;;;;4954277;29;20043;-75
2021/06/26 04:51:59;;;;;;;0.80;0.80;;;25.20;88.70;;;;;;4952464;29;20479;-79
2021/06/26 04:54:25;;;;;;;3.38;1.73;;;25.30;90.10;;;;;;4954555;28;20317;-84
2021/06/26 04:56:51;;;;;;;2.38;1.02;;;25.30;90.30;;;;;;4954026;29;20047;-84
2021/06/26 04:59:16;;;;;;;0.60;0.60;;;25.40;90.10;;;;;;4953552;29;20097;-85
2021/06/26 05:01:42;;;;;;;1.27;1.17;;;25.00;88.00;;;;;;4952873;29;20023;-82
2021/06/26 05:04:08;;;;;;;0.60;0.60;;;25.10;88.90;;;;;;4954886;28;20476;-78
2021/06/26 05:06:34;;;;;;;0.80;0.80;;;25.30;90.40;;;;;;4954696;29;20030;-78
2021/06/26 05:08:59;;;;;;;1.75;1.45;;;25.40;89.00;;;;;;4952872;29;20023;-80
2021/06/26 05:11:25;;;;;;;0.57;0.57;;;25.60;90.00;;;;;;4953752;28;20058;-77
2021/06/26 05:13:51;;;;;;;1.42;1.33;;;25.70;90.00;;;;;;4954140;29;20043;-78
2021/06/26 05:16:17;;;;;;;2.80;2.35;;;25.70;88.60;;;;;;4953720;29;20464;-77
2021/06/26 05:18:43;;;;;;;4.25;2.13;;;25.70;88.40;;;;;;4952450;29;20027;-76
2021/06/26 05:21:08;;;;;;;1.55;1.45;;;25.80;88.80;;;;;;4954007;29;20036;-77
2021/06/26 05:23:34;;;;;;;9.25;2.40;;;25.90;88.20;;;;;;4953622;29;20039;-77
2021/06/26 05:26:00;;;;;;;0.85;0.85;;;25.80;88.10;;;;;;4953814;29;20043;-77
2021/06/26 05:28:26;;;;;;;0.80;0.80;;;25.90;89.50;;;;;;4953472;28;20031;-78
2021/06/26 05:30:52;;;;;;;1.52;1.40;;;25.80;89.80;;;;;;4953449;28;20050;-77
2021/06/26 05:33:18;;;;;;;0.90;0.90;;;25.80;89.80;;;;;;4953633;29;20042;-77
2021/06/26 05:35:45;;;;;;;2.20;2.00;;;25.80;88.70;;;;;;4953414;28;20030;-79
2021/06/26 05:38:11;;;;;;;5.55;3.25;;;25.90;89.40;;;;;;4953397;28;20460;-77
2021/06/26 05:40:37;;;;;;;0.80;0.77;;;26.00;90.00;;;;;;4953913;29;20038;-77
2021/06/26 05:43:03;;;;;;;0.95;0.88;;;26.10;89.40;;;;;;4953476;28;20448;-75
2021/06/26 05:45:29;;;;;;;1.95;1.77;;;26.20;89.20;;;;;;4953394;28;20047;-77
2021/06/26 05:47:54;;;;;;;0.70;0.70;;;26.20;87.80;;;;;;4952622;28;20031;-77
2021/06/26 05:50:20;;;;;;;0.73;0.73;;;26.20;87.60;;;;;;4952851;29;20396;-74
2021/06/26 05:52:56;;;;;;;0.60;0.60;;;26.20;86.20;;;;;;4953449;29;20399;-77
2021/06/26 05:55:23;;;;;;;1.25;1.15;;;26.30;87.90;;;;;;4953327;28;20023;-79
2021/06/26 05:57:48;;;;;;;0.93;0.93;;;26.40;89.20;;;;;;4953089;28;20435;-80
2021/06/26 06:00:16;;;;;;;0.73;0.73;;;26.40;88.20;;;;;;4953376;28;20475;-78
2021/06/26 06:02:42;;;;;;;1.23;1.13;;;26.50;87.00;;;;;;4967912;28;20118;-78
2021/06/26 06:05:08;;;;;;;1.30;1.20;;;26.50;86.40;;;;;;4953160;28;20023;-80
2021/06/26 06:07:36;;;;;;;1.90;1.65;;;26.60;86.70;;;;;;4953536;28;20472;-79
2021/06/26 06:10:03;;;;;;;1.35;1.25;;;26.60;86.20;;;;;;4952895;28;20386;-78
2021/06/26 06:12:29;;;;;;;1.25;1.15;;;26.70;87.10;;;;;;4953611;28;20059;-77
2021/06/26 06:14:54;;;;;;;1.25;1.15;;;26.80;85.80;;;;;;4952754;28;20023;-77
2021/06/26 06:17:20;;;;;;;1.95;1.63;;;26.80;85.70;;;;;;4953270;28;20031;-80
2021/06/26 06:19:46;;;;;;;1.52;1.42;;;26.80;84.10;;;;;;4952508;28;20023;-80
2021/06/26 06:22:12;;;;;;;2.88;1.55;;;26.70;83.40;;;;;;4951025;29;20027;-79
2021/06/26 06:24:37;;;;;;;6.18;4.53;;;26.80;82.60;;;;;;4951794;29;20091;-83
2021/06/26 06:27:04;;;;;;;2.10;1.67;;;26.90;82.60;;;;;;4953329;29;20476;-77
2021/06/26 06:29:29;;;;;;;5.57;3.83;;;27.10;83.70;;;;;;4952742;29;20027;-78
2021/06/26 06:31:55;;;;;;;2.88;1.80;;;27.10;81.20;;;;;;4953070;29;20062;-77
2021/06/26 06:34:21;;;;;;;2.60;1.75;;;27.10;82.60;;;;;;4952966;29;20031;-79
2021/06/26 06:36:46;;;;;;;2.92;1.15;;;27.10;81.60;;;;;;4952206;29;20483;-76
2021/06/26 06:39:13;;;;;;;1.50;1.40;;;27.10;81.60;;;;;;4952243;28;20499;-76
2021/06/26 06:41:38;;;;;;;4.80;1.63;;;27.10;81.50;;;;;;4952802;28;20063;-76
2021/06/26 06:44:04;;;;;;;2.90;2.60;;;27.30;81.50;;;;;;4951923;29;20047;-76
2021/06/26 06:46:30;;;;;;;5.90;4.82;;;27.40;81.20;;;;;;4952541;28;20118;-76
2021/06/26 06:48:56;;;;;;;4.45;4.00;;;27.20;81.20;;;;;;4952135;29;20031;-76
2021/06/26 06:51:21;;;;;;;2.25;1.08;;;27.30;81.30;;;;;;4951956;29;20043;-77
2021/06/26 06:53:47;;;;;;;3.15;1.88;;;27.30;81.10;;;;;;4951056;28;20522;-76
2021/06/26 06:56:13;;;;;;;12.50;4.75;;;27.50;81.30;;;;;;4951495;29;20039;-77
2021/06/26 06:58:38;;;;;;;5.93;2.67;;;27.50;81.00;;;;;;4951287;28;20447;-75
2021/06/26 07:01:04;;;;;;;2.20;1.85;;;27.40;81.30;;;;;;4955668;29;20526;-83
2021/06/26 07:03:30;;;;;;;0.57;0.52;;;27.50;81.00;;;;;;4955386;29;20106;-79
2021/06/26 07:05:56;;;;;;;0.63;0.63;;;27.30;80.20;;;;;;4956490;29;20102;-76
2021/06/26 07:08:24;;;;;;;2.78;2.40;;;27.20;81.20;;;;;;4955976;29;20031;-77
2021/06/26 07:10:50;;;;;;;6.70;4.28;;;27.40;81.50;;;;;;4954761;29;20039;-78
2021/06/26 07:13:16;;;;;;;13.15;5.72;;;27.50;82.20;;;;;;4954793;29;20046;-77
2021/06/26 07:15:42;;;;;;;0.80;0.80;;;27.60;83.00;;;;;;4955349;28;20027;-76
2021/06/26 07:18:07;;;;;;;2.67;2.47;;;27.60;82.90;;;;;;4955583;28;20074;-76
2021/06/26 07:20:33;;;;;;;1.95;1.75;;;27.70;82.40;;;;;;4955902;28;20110;-76
2021/06/26 07:22:59;;;;;;;1.70;1.60;;;27.70;81.50;;;;;;4947857;29;20055;-76
2021/06/26 07:25:25;;;;;;;0.77;0.75;;;27.80;81.80;;;;;;4943652;29;20369;-80
2021/06/26 07:27:51;;;;;;;0.63;0.63;;;27.60;81.10;;;;;;4948272;29;20386;-76
2021/06/26 07:30:17;;;;;;;4.57;1.58;;;27.70;81.70;;;;;;4954529;29;20038;-76
2021/06/26 07:32:45;;;;;;;1.02;0.95;;;27.80;82.00;;;;;;4954205;28;20445;-78
2021/06/26 07:35:13;;;;;;;1.17;1.10;;;27.90;82.00;;;;;;4952003;29;20411;-77
2021/06/26 07:37:39;;;;;;;2.80;2.05;;;27.90;81.70;;;;;;4951036;28;20039;-77
2021/06/26 07:40:06;;;;;;;2.80;1.73;;;28.00;82.10;;;;;;4953945;28;20093;-77
2021/06/26 07:42:32;;;;;;;0.85;0.80;;;28.20;82.50;;;;;;4954162;28;20117;-78
2021/06/26 07:44:58;;;;;;;2.50;1.45;;;28.30;82.60;;;;;;4953515;28;20129;-79
2021/06/26 07:47:23;;;;;;;1.40;1.30;;;28.40;81.60;;;;;;4953782;29;20055;-76
2021/06/26 07:49:49;;;;;;;1.60;1.50;;;28.40;81.50;;;;;;4950431;29;20070;-77
2021/06/26 07:52:15;;;;;;;1.00;0.93;;;28.40;82.30;;;;;;4954426;29;20046;-78
2021/06/26 07:54:41;;;;;;;2.90;1.40;;;28.60;82.00;;;;;;4951733;29;20430;-77
2021/06/26 07:57:07;;;;;;;2.25;1.52;;;28.70;81.70;;;;;;4953006;29;20042;-79
2021/06/26 07:59:32;;;;;;;1.23;1.13;;;28.70;80.70;;;;;;4953257;28;20078;-77
2021/06/26 08:01:58;;;;;;;0.88;0.88;;;28.80;76.00;;;;;;4952286;29;20023;-77
2021/06/26 08:04:24;;;;;;;1.58;1.45;;;28.90;77.60;;;;;;4953385;28;20023;-78
2021/06/26 08:06:50;;;;;;;2.28;1.13;;;28.90;76.20;;;;;;4953443;28;20403;-76
2021/06/26 08:09:16;;;;;;;2.30;1.48;;;29.00;74.70;;;;;;4953735;28;20051;-77
2021/06/26 08:11:41;;;;;;;1.55;1.42;;;29.10;76.00;;;;;;4950848;28;20127;-76
2021/06/26 08:14:08;;;;;;;0.40;0.40;;;29.20;75.30;;;;;;4951396;28;20059;-78
2021/06/26 08:16:34;;;;;;;0.60;0.55;;;29.30;75.00;;;;;;4953595;28;20050;-79
2021/06/26 08:19:00;;;;;;;0.98;0.93;;;29.40;72.50;;;;;;4953256;28;20057;-78
2021/06/26 08:21:26;;;;;;;3.33;1.65;;;29.50;71.20;;;;;;4953862;28;20057;-77
2021/06/26 08:23:53;;;;;;;1.90;1.58;;;29.60;70.80;;;;;;4950249;28;20020;-79
2021/06/26 08:26:19;;;;;;;1.25;1.08;;;29.50;71.50;;;;;;4951402;29;20039;-76
2021/06/26 08:28:45;;;;;;;0.40;0.40;;;29.40;70.40;;;;;;4952130;28;20023;-77
2021/06/26 08:31:11;;;;;;;1.15;1.02;;;29.60;70.70;;;;;;4952507;29;20488;-80
2021/06/26 08:33:36;;;;;;;4.40;2.40;;;29.70;70.00;;;;;;4952468;28;20039;-81
2021/06/26 08:36:03;;;;;;;1.95;1.70;;;29.70;69.40;;;;;;4950226;28;20027;-82
2021/06/26 08:38:28;;;;;;;2.08;0.47;;;29.80;69.90;;;;;;4952650;28;20027;-82
2021/06/26 08:40:55;;;;;;;2.20;1.77;;;29.70;70.80;;;;;;4952821;28;20035;-79
2021/06/26 08:43:22;;;;;;;4.60;1.45;;;29.50;69.80;;;;;;4952643;28;20051;-80
2021/06/26 08:45:48;;;;;;;0.40;0.40;;;29.60;71.10;;;;;;4952408;28;20050;-77
2021/06/26 08:48:17;;;;;;;0.85;0.85;;;29.60;70.10;;;;;;4950095;28;20027;-81
2021/06/26 08:50:45;;;;;;;0.70;0.70;;;30.00;70.20;;;;;;4953723;28;20086;-76
2021/06/26 08:53:11;;;;;;;1.73;1.15;;;30.20;67.60;;;;;;4953022;28;20452;-79
2021/06/26 08:55:36;;;;;;;7.18;4.20;;;30.40;65.00;;;;;;4951213;28;20070;-78
2021/06/26 08:58:04;;;;;;;2.42;1.73;;;30.10;65.60;;;;;;4953311;28;20077;-79
2021/06/26 09:00:30;;;;;;;0.55;0.50;;;30.00;66.40;;;;;;4950263;28;20402;-77
2021/06/26 09:03:10;;;;;;;2.83;2.22;;;30.10;65.40;;;;;;4952306;28;20023;-83
2021/06/26 09:05:37;;;;;;;4.47;1.90;;;30.30;64.00;;;;;;4950449;29;20122;-78
2021/06/26 09:08:10;;;;;;;2.22;1.67;;;30.70;63.90;;;;;;4952949;28;20028;-80
2021/06/26 09:10:37;;;;;;;0.88;0.50;;;30.70;62.60;;;;;;4949663;29;20039;-77
2021/06/26 09:13:16;;;;;;;0.90;0.90;;;31.00;62.80;;;;;;4951442;28;20035;-79
2021/06/26 09:15:43;;;;;;;1.15;0.70;;;31.50;61.30;;;;;;4951524;28;20106;-80
2021/06/26 09:18:20;;;;;;;0.73;0.73;;;31.30;60.60;;;;;;4952365;28;20522;-77
2021/06/26 09:20:51;;;;;;;0.82;0.73;;;31.50;60.90;;;;;;4952896;28;20432;-83
2021/06/26 09:23:22;;;;;;;4.05;2.15;;;31.80;60.70;;;;;;4950699;28;20019;-76
2021/06/26 09:25:51;;;;;;;1.65;1.35;;;32.00;60.80;;;;;;4951411;28;20611;-87
2021/06/26 09:28:25;;;;;;;4.70;1.93;;;32.00;60.00;;;;;;4951420;29;20023;-78
2021/06/26 09:30:53;;;;;;;2.10;1.58;;;32.10;59.10;;;;;;4952759;28;20039;-75
2021/06/26 09:33:21;;;;;;;0.68;0.63;;;31.90;61.90;;;;;;4951241;29;20396;-78
2021/06/26 09:36:04;;;;;;;0.77;0.77;;;32.20;59.60;;;;;;4948475;28;20395;-79
2021/06/26 09:38:32;;;;;;;21.35;2.30;;;32.40;58.50;;;;;;4952279;29;20031;-78
2021/06/26 09:40:59;;;;;;;0.30;0.30;;;32.10;57.60;;;;;;4951749;28;20400;-81
2021/06/26 09:43:29;;;;;;;1.85;1.63;;;32.50;58.70;;;;;;4951833;28;20058;-78
2021/06/26 09:46:05;;;;;;;0.73;0.73;;;32.70;55.10;;;;;;4950728;28;20047;-79
2021/06/26 09:48:31;;;;;;;0.80;0.77;;;32.50;56.00;;;;;;4948838;29;20031;-79
2021/06/26 09:50:57;;;;;;;1.05;0.88;;;32.50;56.40;;;;;;4952608;28;20090;-81
2021/06/26 09:53:23;;;;;;;0.30;0.30;;;32.20;56.90;;;;;;4950235;29;20091;-79
2021/06/26 09:55:53;;;;;;;4.35;2.25;;;32.50;56.40;;;;;;4949497;29;20403;-78
2021/06/26 09:58:19;;;;;;;3.15;2.17;;;32.80;56.80;;;;;;4949763;29;20027;-78
2021/06/26 10:00:47;;;;;;;1.45;1.15;;;32.70;57.10;;;;;;4951002;28;20023;-78
2021/06/26 10:03:17;;;;;;;2.30;1.80;;;32.40;58.00;;;;;;4951556;28;20031;-78
2021/06/26 10:05:45;;;;;;;3.80;1.42;;;32.70;58.20;;;;;;4945077;28;20238;-77
2021/06/26 10:08:13;;;;;;;4.43;1.85;;;33.10;58.10;;;;;;4958658;28;20018;-77
2021/06/26 10:10:39;;;;;;;2.20;1.58;;;32.70;58.00;;;;;;4970022;28;20042;-77
2021/06/26 10:13:05;;;;;;;2.30;1.58;;;33.00;58.80;;;;;;4954517;28;20047;-80
2021/06/26 10:15:33;;;;;;;4.53;3.90;;;33.40;58.30;;;;;;4951845;28;20027;-79
2021/06/26 10:18:00;;;;;;;2.05;1.25;;;33.20;58.10;;;;;;4952785;28;20036;-77
2021/06/26 10:20:27;;;;;;;4.03;2.47;;;33.10;58.00;;;;;;4951652;28;20412;-77
2021/06/26 10:22:56;;;;;;;0.77;0.77;;;33.10;58.10;;;;;;4952536;28;20026;-75
2021/06/26 10:25:28;;;;;;;1.88;1.70;;;33.50;57.90;;;;;;4969495;28;20031;-77
2021/06/26 10:28:05;;;;;;;1.77;1.65;;;33.70;57.90;;;;;;4971641;28;20482;-78
2021/06/26 10:30:31;;;;;;;13.68;2.13;;;33.70;57.40;;;;;;4965303;28;20046;-77
2021/06/26 10:33:06;;;;;;;2.42;2.15;;;33.60;57.00;;;;;;4951123;28;20038;-76
2021/06/26 10:35:34;;;;;;;17.13;1.50;;;33.70;55.10;;;;;;4954087;28;20027;-76
2021/06/26 10:38:13;;;;;;;1.23;1.13;;;34.30;55.20;;;;;;4962942;28;20047;-76
2021/06/26 10:40:40;;;;;;;0.80;0.73;;;34.10;54.30;;;;;;4955546;28;20035;-74
2021/06/26 10:43:32;;;;;;;1.48;1.05;;;33.60;54.80;;;;;;4955758;28;20030;-78
2021/06/26 10:46:12;;;;;;;3.70;3.38;;;34.20;55.10;;;;;;4952050;28;20070;-77
2021/06/26 10:48:55;;;;;;;4.03;1.67;;;34.20;53.70;;;;;;4954749;29;20031;-77
2021/06/26 10:51:33;;;;;;;0.90;0.90;;;33.80;52.60;;;;;;4963285;28;20114;-78
2021/06/26 10:54:17;;;;;;;0.38;0.38;;;33.90;53.00;;;;;;4968631;28;20841;-78
2021/06/26 10:56:47;;;;;;;9.68;3.35;;;33.90;52.70;;;;;;4955390;28;20035;-83
2021/06/26 10:59:18;;;;;;;2.70;2.30;;;34.00;54.00;;;;;;4955194;29;20063;-82
2021/06/26 11:01:58;;;;;;;0.13;0.13;;;34.10;53.50;;;;;;4956128;28;20031;-78
2021/06/26 11:04:24;;;;;;;0.30;0.30;;;34.50;52.00;;;;;;4937113;29;20023;-78
2021/06/26 11:07:09;;;;;;;0.32;0.32;;;34.50;51.70;;;;;;4937462;29;20081;-79
2021/06/26 11:09:46;;;;;;;2.00;1.05;;;34.70;50.50;;;;;;4936085;29;20484;-83
2021/06/26 11:12:15;;;;;;;3.78;2.00;;;34.70;51.10;;;;;;4937152;29;20396;-79
2021/06/26 11:14:57;;;;;;;1.15;1.00;;;34.70;50.70;;;;;;4936467;29;20514;-79
2021/06/26 11:17:34;;;;;;;1.10;0.55;;;35.10;52.10;;;;;;4936914;29;20377;-81
2021/06/26 11:20:00;;;;;;;0.70;0.70;;;35.50;51.30;;;;;;4937193;29;20296;-81
2021/06/26 11:22:26;;;;;;;0.38;0.35;;;35.60;51.10;;;;;;4936934;29;20491;-84
2021/06/26 11:24:52;;;;;;;1.40;1.30;;;35.50;51.50;;;;;;4936437;29;20042;-84
2021/06/26 11:27:20;;;;;;;1.20;0.85;;;35.60;51.10;;;;;;4936483;29;20532;-84
2021/06/26 11:29:49;;;;;;;1.80;1.05;;;35.70;50.70;;;;;;4937048;29;20047;-82
2021/06/26 11:32:21;;;;;;;0.85;0.63;;;35.80;50.00;;;;;;4936470;29;20032;-80
2021/06/26 11:34:58;;;;;;;0.85;0.80;;;35.80;49.30;;;;;;4936751;29;20030;-83
2021/06/26 11:37:35;;;;;;;0.55;0.55;;;35.70;49.70;;;;;;4936655;29;20024;-78
2021/06/26 11:40:15;;;;;;;2.83;1.95;;;35.80;49.70;;;;;;4936701;29;20103;-79
2021/06/26 11:42:52;;;;;;;0.30;0.30;;;36.20;49.90;;;;;;4936650;29;20039;-79
2021/06/26 11:45:20;;;;;;;0.20;0.20;;;36.40;49.20;;;;;;4935167;29;20048;-79
2021/06/26 11:47:46;;;;;;;0.20;0.20;;;36.40;49.40;;;;;;4936160;29;20479;-79
2021/06/26 11:50:17;;;;;;;0.47;0.45;;;36.20;49.10;;;;;;4936449;29;20019;-82
2021/06/26 11:52:43;;;;;;;0.30;0.30;;;36.40;48.80;;;;;;4936404;29;20054;-84
2021/06/26 11:55:10;;;;;;;0.17;0.17;;;36.40;50.00;;;;;;4936200;29;20392;-83
2021/06/26 11:57:36;;;;;;;0.20;0.20;;;35.80;49.90;;;;;;4935879;29;20107;-83
2021/06/26 12:00:02;;;;;;;19.52;2.28;;;35.20;50.60;;;;;;4936278;29;20110;-82
2021/06/26 12:02:38;;;;;;;11.90;1.15;;;35.30;51.20;;;;;;4940002;29;20115;-83
2021/06/26 12:05:05;;;;;;;2.42;0.77;;;35.80;51.20;;;;;;4954895;28;20026;-81
2021/06/26 12:07:36;;;;;;;1.40;0.77;;;36.20;50.40;;;;;;4955276;28;20051;-80
2021/06/26 12:10:05;;;;;;;2.60;0.68;;;36.30;49.70;;;;;;4954023;29;20483;-80
2021/06/26 12:12:38;;;;;;;0.93;0.90;;;36.20;49.50;;;;;;4954958;28;20047;-81
2021/06/26 12:15:06;;;;;;;2.08;1.33;;;35.90;49.60;;;;;;4954837;28;20027;-83
2021/06/26 12:17:32;;;;;;;0.50;0.50;;;36.40;48.90;;;;;;4954830;28;20182;-83
2021/06/26 12:20:05;;;;;;;0.22;0.22;;;36.40;49.10;;;;;;4955408;28;20106;-83
2021/06/26 12:22:31;;;;;;;3.35;1.48;;;35.80;48.60;;;;;;4954763;28;20074;-81
2021/06/26 12:25:33;;;;;;;0.25;0.25;;;35.40;49.20;;;;;;4954753;28;20023;-82
2021/06/26 12:28:00;;;;;;;0.20;0.20;;;35.30;48.50;;;;;;4953685;29;20390;-83
2021/06/26 12:30:27;;;;;;;2.83;1.67;;;35.70;49.00;;;;;;4954462;28;20051;-82
2021/06/26 12:33:05;;;;;;;0.50;0.50;;;35.40;48.40;;;;;;4953685;28;20031;-85
2021/06/26 12:35:32;;;;;;;2.65;2.08;;;35.10;48.90;;;;;;4954535;28;20032;-79
2021/06/26 12:37:57;;;;;;;8.80;0.93;;;35.50;50.10;;;;;;4957255;28;20071;-80
2021/06/26 12:40:28;;;;;;;3.28;1.50;;;36.00;47.90;;;;;;4953085;28;20031;-78
2021/06/26 12:43:05;;;;;;;0.32;0.32;;;36.30;48.50;;;;;;4953874;28;20035;-78
2021/06/26 14:33:08;;;;;;;2.58;1.38;;;36.70;42.60;;;;;;5108987;27;20409;-76
2021/06/26 14:35:34;;;;;;;2.88;2.13;;;37.00;41.60;;;;;;5108818;28;20026;-78